Cantonment, FL

6:06 PM CDT on June 03, 2015 (GMT -0500)
Pensacola Naval Air Station | | Change Station
CLOSE
Current Station
Airport
Location: Pensacola NAS,
Elevation: 30 ft
Nearby Weather Stations

Elev 30 ft 30.36 °N, 87.32 °W | Updated 10 minutes ago

Partly Cloudy
Partly Cloudy
82 °F
Feels Like 86 °F
N
7
Wind Variable Wind from WSW

Today
High -- | Low -- °F
--% Chance of Precip.
Yesterday
High -- | Low -- °F
Precip. -- in
5:46 AM 7:48 PM
Full, 98% visible
Pressure 29.88 in
Visibility 10.0 miles
Clouds Few 4000 ft
Scattered Clouds 12000 ft
Mostly Cloudy 25000 ft
Heat Index 86 °F
Dew Point 70 °F
Humidity 67%
Rainfall 0.00 in
Snow Depth Not available.
UV 1 out of 12
Pollen 4.50 out of 12
Air Quality Not available.
Flu Activity Sporadic
METAR KNPA 032256Z 24006KT 10SM FEW040 SCT120 BKN250 28/21 A2987 RMK AO2 SLP117 T02780211 $

More Conditions Fewer Conditions

Pressure 29.88 in
Visibility 10.0 miles
Clouds Few 4000 ft
Scattered Clouds 12000 ft
Mostly Cloudy 25000 ft
Heat Index 86 °F
Dew Point 70 °F
Humidity 67%
Rainfall 0.00 in
Snow Depth Not available.
UV 1 out of 12
Pollen 4.50 out of 12
Air Quality Not available.
Flu Activity Sporadic
METAR KNPA 032256Z 24006KT 10SM FEW040 SCT120 BKN250 28/21 A2987 RMK AO2 SLP117 T02780211 $

More Conditions Fewer Conditions

10-Day Weather Forecast

×

Almanac

Astronomy

Jun. 03, 2015 Rise Set
Actual Time
Civil Twilight
Nautical Twilight
Astronomical Twilight
Moon
Length of Visible Light
Length of Day
Tomorrow will be .
, % of the Moon is Illuminated

Today's Extremes

State Highs State Lows

Community

WunderPhotos

Upload Photos

1,826,297 photos uploaded!

WunderBlogs® & News

Nearby

Air Quality

  Air Quality AQ Index Pollutant
Not available.

Snow Depth

Station Depth Elevation

Earthquake Activity

City Distance Mag. Time & Date
Minimum magnitude displayed is 2.5.

Coastal Water Temperatures

Place Temperature

Stations

Nearby Weather Stations

Station Location Temp. Windchill Dew Point Humidity Wind Precip. Elev Updated Type